Enter the Airport ICAO Code

Search by Airport or City

Current Weather

GCLA | La Palma Airport

La Palma, Canary Islands, Spain

Last Update 9 Minutes Ago

Sky with Few Clouds

Temperature of 17 ºC

Light Winds from Variable Directions

Temperature

17 ºC

Dew Point Temperature

11 ºC

Relative Humidity

67.9 %

Wind Direction

Variable

Wind Velocity

4 km/h (02 kt)

Gusts

None

Visibility

Greater than 10 Kilometers

Sea Level Pressure

1013 hPa (Hectopascals)

Layers of Clouds

5% to 30% of Sky Covered from 1524 mts (5000 ft) Above Ground Level.

METAR GCLA 160730Z VRB02KT 9999 FEW050 17/11 Q1013

Weather Forecast

GCLA | La Palma Airport

La Palma, Canary Islands, Spain

Forecast valid for the next 19 Hours

From now on it is expected:

Mostly Cloudy Sky

Light to Moderate Winds from West

From now on it is expected 2 hours with intermittent periods of:

Moderate Winds from West with Gusts

In 2 to 4 hours it is expected the begining of:

Moderate Winds from North

In 5 hours it is expected the begining of 6 hours with intermittent periods of:

Moderate Winds from North with Gusts

Maximum Temperature

21 ºC in 6 Hours

Minimum Temperature

16 ºC in -2 Hours

TAF GCLA 160200Z 1603/1703 27009KT 9999 BKN030 TX21/1614Z TN16/1606Z PROB40 TEMPO 1603/1609 4900 RA TEMPO 1606/1610 27015G25KT BECMG 1610/1612 01015KT TEMPO 1613/1619 01015G25KT